sensor_id;sensor_type;location;lat;lon;timestamp;P1;durP1;ratioP1;P2;durP2;ratioP2
7969;SDS011;4030;52.362;9.206;2022-09-03T00:00:35;1.58;;;0.70;;
7969;SDS011;4030;52.362;9.206;2022-09-03T00:06:09;0.60;;;0.55;;
7969;SDS011;4030;52.362;9.206;2022-09-03T00:11:24;1.08;;;0.65;;
7969;SDS011;4030;52.362;9.206;2022-09-03T00:14:14;1.15;;;0.55;;
7969;SDS011;4030;52.362;9.206;2022-09-03T00:16:56;0.85;;;0.60;;
7969;SDS011;4030;52.362;9.206;2022-09-03T00:19:34;1.25;;;0.70;;
7969;SDS011;4030;52.362;9.206;2022-09-03T00:22:16;2.38;;;0.75;;
7969;SDS011;4030;52.362;9.206;2022-09-03T00:24:48;1.10;;;0.70;;
7969;SDS011;4030;52.362;9.206;2022-09-03T00:27:16;1.75;;;0.60;;
7969;SDS011;4030;52.362;9.206;2022-09-03T00:29:51;0.50;;;0.50;;
7969;SDS011;4030;52.362;9.206;2022-09-03T00:32:47;1.42;;;0.77;;
7969;SDS011;4030;52.362;9.206;2022-09-03T00:35:21;0.77;;;0.60;;
7969;SDS011;4030;52.362;9.206;2022-09-03T00:37:56;0.80;;;0.60;;
7969;SDS011;4030;52.362;9.206;2022-09-03T00:49:27;0.90;;;0.65;;
7969;SDS011;4030;52.362;9.206;2022-09-03T01:01:20;1.77;;;0.60;;
7969;SDS011;4030;52.362;9.206;2022-09-03T01:04:05;0.75;;;0.70;;
7969;SDS011;4030;52.362;9.206;2022-09-03T01:12:36;0.60;;;0.50;;
7969;SDS011;4030;52.362;9.206;2022-09-03T01:18:54;2.17;;;0.70;;
7969;SDS011;4030;52.362;9.206;2022-09-03T01:21:46;1.30;;;0.70;;
7969;SDS011;4030;52.362;9.206;2022-09-03T01:30:30;1.88;;;0.80;;
7969;SDS011;4030;52.362;9.206;2022-09-03T01:33:14;0.80;;;0.70;;
7969;SDS011;4030;52.362;9.206;2022-09-03T01:36:57;1.67;;;0.80;;
7969;SDS011;4030;52.362;9.206;2022-09-03T01:39:19;1.92;;;0.90;;
7969;SDS011;4030;52.362;9.206;2022-09-03T01:58:11;1.38;;;0.90;;
7969;SDS011;4030;52.362;9.206;2022-09-03T02:00:45;0.80;;;0.80;;
7969;SDS011;4030;52.362;9.206;2022-09-03T02:03:21;0.80;;;0.60;;
7969;SDS011;4030;52.362;9.206;2022-09-03T02:05:49;2.38;;;0.88;;
7969;SDS011;4030;52.362;9.206;2022-09-03T02:08:17;1.45;;;0.75;;
7969;SDS011;4030;52.362;9.206;2022-09-03T02:10:44;1.38;;;1.00;;
7969;SDS011;4030;52.362;9.206;2022-09-03T02:13:17;1.02;;;0.73;;
7969;SDS011;4030;52.362;9.206;2022-09-03T02:15:50;1.42;;;0.85;;
7969;SDS011;4030;52.362;9.206;2022-09-03T02:18:22;1.10;;;0.80;;
7969;SDS011;4030;52.362;9.206;2022-09-03T02:20:55;0.90;;;0.80;;
7969;SDS011;4030;52.362;9.206;2022-09-03T02:23:22;1.05;;;0.85;;
7969;SDS011;4030;52.362;9.206;2022-09-03T02:25:51;1.42;;;0.70;;
7969;SDS011;4030;52.362;9.206;2022-09-03T02:28:21;2.22;;;0.90;;
7969;SDS011;4030;52.362;9.206;2022-09-03T02:30:48;0.80;;;0.80;;
7969;SDS011;4030;52.362;9.206;2022-09-03T02:33:14;1.20;;;0.80;;
7969;SDS011;4030;52.362;9.206;2022-09-03T02:35:40;1.95;;;0.85;;
7969;SDS011;4030;52.362;9.206;2022-09-03T02:38:08;1.85;;;0.90;;
7969;SDS011;4030;52.362;9.206;2022-09-03T02:40:35;1.98;;;1.10;;
7969;SDS011;4030;52.362;9.206;2022-09-03T02:43:02;1.10;;;0.90;;
7969;SDS011;4030;52.362;9.206;2022-09-03T02:45:30;1.83;;;0.95;;
7969;SDS011;4030;52.362;9.206;2022-09-03T02:47:57;1.33;;;0.90;;
7969;SDS011;4030;52.362;9.206;2022-09-03T02:50:24;1.40;;;0.90;;
7969;SDS011;4030;52.362;9.206;2022-09-03T02:52:51;1.13;;;0.70;;
7969;SDS011;4030;52.362;9.206;2022-09-03T02:55:18;1.38;;;0.98;;
7969;SDS011;4030;52.362;9.206;2022-09-03T02:57:44;1.00;;;0.77;;
7969;SDS011;4030;52.362;9.206;2022-09-03T03:00:11;1.83;;;0.90;;
7969;SDS011;4030;52.362;9.206;2022-09-03T03:02:37;0.70;;;0.70;;
7969;SDS011;4030;52.362;9.206;2022-09-03T03:05:03;1.00;;;0.70;;
7969;SDS011;4030;52.362;9.206;2022-09-03T03:07:33;1.17;;;1.08;;
7969;SDS011;4030;52.362;9.206;2022-09-03T03:10:03;1.40;;;0.85;;
7969;SDS011;4030;52.362;9.206;2022-09-03T03:12:29;1.40;;;1.02;;
7969;SDS011;4030;52.362;9.206;2022-09-03T03:14:55;1.10;;;0.80;;
7969;SDS011;4030;52.362;9.206;2022-09-03T03:17:21;1.13;;;0.80;;
7969;SDS011;4030;52.362;9.206;2022-09-03T03:19:47;1.63;;;1.00;;
7969;SDS011;4030;52.362;9.206;2022-09-03T03:22:13;1.48;;;0.85;;
7969;SDS011;4030;52.362;9.206;2022-09-03T03:24:39;1.27;;;0.77;;
7969;SDS011;4030;52.362;9.206;2022-09-03T03:27:06;1.75;;;1.10;;
7969;SDS011;4030;52.362;9.206;2022-09-03T03:29:34;2.10;;;1.00;;
7969;SDS011;4030;52.362;9.206;2022-09-03T03:32:00;1.30;;;0.80;;
7969;SDS011;4030;52.362;9.206;2022-09-03T03:34:26;0.80;;;0.80;;
7969;SDS011;4030;52.362;9.206;2022-09-03T03:36:51;1.02;;;0.80;;
7969;SDS011;4030;52.362;9.206;2022-09-03T03:39:18;1.50;;;0.88;;
7969;SDS011;4030;52.362;9.206;2022-09-03T03:41:45;1.20;;;0.85;;
7969;SDS011;4030;52.362;9.206;2022-09-03T03:44:10;1.42;;;0.80;;
7969;SDS011;4030;52.362;9.206;2022-09-03T03:46:37;1.73;;;1.00;;
7969;SDS011;4030;52.362;9.206;2022-09-03T03:49:05;1.02;;;0.90;;
7969;SDS011;4030;52.362;9.206;2022-09-03T03:51:32;1.42;;;0.80;;
7969;SDS011;4030;52.362;9.206;2022-09-03T03:53:59;1.10;;;0.85;;
7969;SDS011;4030;52.362;9.206;2022-09-03T03:56:25;1.42;;;0.88;;
7969;SDS011;4030;52.362;9.206;2022-09-03T03:58:51;1.80;;;0.90;;
7969;SDS011;4030;52.362;9.206;2022-09-03T04:01:19;1.30;;;0.80;;
7969;SDS011;4030;52.362;9.206;2022-09-03T04:03:47;1.42;;;0.90;;
7969;SDS011;4030;52.362;9.206;2022-09-03T04:06:14;1.27;;;0.88;;
7969;SDS011;4030;52.362;9.206;2022-09-03T04:08:42;2.00;;;0.80;;
7969;SDS011;4030;52.362;9.206;2022-09-03T04:11:11;1.13;;;0.70;;
7969;SDS011;4030;52.362;9.206;2022-09-03T04:13:40;1.20;;;0.90;;
7969;SDS011;4030;52.362;9.206;2022-09-03T04:16:08;0.60;;;0.60;;
7969;SDS011;4030;52.362;9.206;2022-09-03T04:18:43;0.77;;;0.77;;
7969;SDS011;4030;52.362;9.206;2022-09-03T04:21:14;2.22;;;0.88;;
7969;SDS011;4030;52.362;9.206;2022-09-03T04:23:51;0.80;;;0.80;;
7969;SDS011;4030;52.362;9.206;2022-09-03T04:26:18;1.48;;;0.90;;
7969;SDS011;4030;52.362;9.206;2022-09-03T04:28:50;1.20;;;0.80;;
7969;SDS011;4030;52.362;9.206;2022-09-03T04:31:17;1.80;;;0.90;;
7969;SDS011;4030;52.362;9.206;2022-09-03T04:33:44;1.95;;;0.95;;
7969;SDS011;4030;52.362;9.206;2022-09-03T04:36:11;0.82;;;0.75;;
7969;SDS011;4030;52.362;9.206;2022-09-03T04:38:43;0.93;;;0.70;;
7969;SDS011;4030;52.362;9.206;2022-09-03T04:41:11;1.67;;;0.70;;
7969;SDS011;4030;52.362;9.206;2022-09-03T04:43:40;1.77;;;0.80;;
7969;SDS011;4030;52.362;9.206;2022-09-03T04:46:08;1.15;;;0.90;;
7969;SDS011;4030;52.362;9.206;2022-09-03T04:48:36;0.80;;;0.80;;
7969;SDS011;4030;52.362;9.206;2022-09-03T04:51:03;0.80;;;0.77;;
7969;SDS011;4030;52.362;9.206;2022-09-03T04:53:35;1.02;;;0.80;;
7969;SDS011;4030;52.362;9.206;2022-09-03T04:56:11;1.02;;;0.80;;
7969;SDS011;4030;52.362;9.206;2022-09-03T04:58:38;1.38;;;0.90;;
7969;SDS011;4030;52.362;9.206;2022-09-03T05:01:08;1.25;;;0.80;;
7969;SDS011;4030;52.362;9.206;2022-09-03T05:03:35;1.08;;;0.98;;
7969;SDS011;4030;52.362;9.206;2022-09-03T05:06:01;1.48;;;1.00;;
7969;SDS011;4030;52.362;9.206;2022-09-03T05:08:29;0.77;;;0.70;;
7969;SDS011;4030;52.362;9.206;2022-09-03T05:10:57;1.98;;;0.88;;
7969;SDS011;4030;52.362;9.206;2022-09-03T05:13:24;1.98;;;0.90;;
7969;SDS011;4030;52.362;9.206;2022-09-03T05:15:50;1.20;;;0.75;;
7969;SDS011;4030;52.362;9.206;2022-09-03T05:18:16;1.23;;;0.80;;
7969;SDS011;4030;52.362;9.206;2022-09-03T05:20:42;1.52;;;0.75;;
7969;SDS011;4030;52.362;9.206;2022-09-03T05:23:08;1.40;;;0.77;;
7969;SDS011;4030;52.362;9.206;2022-09-03T05:25:34;1.52;;;0.80;;
7969;SDS011;4030;52.362;9.206;2022-09-03T05:28:02;2.08;;;0.88;;
7969;SDS011;4030;52.362;9.206;2022-09-03T05:30:27;0.77;;;0.60;;
7969;SDS011;4030;52.362;9.206;2022-09-03T05:32:54;2.22;;;0.82;;
7969;SDS011;4030;52.362;9.206;2022-09-03T05:35:20;0.80;;;0.80;;
7969;SDS011;4030;52.362;9.206;2022-09-03T05:37:46;0.90;;;0.80;;
7969;SDS011;4030;52.362;9.206;2022-09-03T05:40:12;2.35;;;1.00;;
7969;SDS011;4030;52.362;9.206;2022-09-03T05:42:38;1.63;;;0.88;;
7969;SDS011;4030;52.362;9.206;2022-09-03T05:45:07;2.33;;;0.82;;
7969;SDS011;4030;52.362;9.206;2022-09-03T05:47:34;1.08;;;0.80;;
7969;SDS011;4030;52.362;9.206;2022-09-03T05:50:05;1.40;;;0.80;;
7969;SDS011;4030;52.362;9.206;2022-09-03T05:52:38;1.13;;;0.80;;
7969;SDS011;4030;52.362;9.206;2022-09-03T05:55:04;2.83;;;0.90;;
7969;SDS011;4030;52.362;9.206;2022-09-03T05:57:30;2.50;;;0.80;;
7969;SDS011;4030;52.362;9.206;2022-09-03T05:59:55;0.90;;;0.80;;
7969;SDS011;4030;52.362;9.206;2022-09-03T06:02:21;1.48;;;0.93;;
7969;SDS011;4030;52.362;9.206;2022-09-03T06:04:47;1.35;;;0.93;;
7969;SDS011;4030;52.362;9.206;2022-09-03T06:07:13;1.00;;;0.90;;
7969;SDS011;4030;52.362;9.206;2022-09-03T06:09:39;2.22;;;0.80;;
7969;SDS011;4030;52.362;9.206;2022-09-03T06:12:05;1.73;;;0.90;;
7969;SDS011;4030;52.362;9.206;2022-09-03T06:14:31;2.75;;;0.90;;
7969;SDS011;4030;52.362;9.206;2022-09-03T06:16:57;2.00;;;0.80;;
7969;SDS011;4030;52.362;9.206;2022-09-03T06:19:22;1.55;;;0.90;;
7969;SDS011;4030;52.362;9.206;2022-09-03T06:21:48;1.40;;;0.88;;
7969;SDS011;4030;52.362;9.206;2022-09-03T06:24:15;1.10;;;0.90;;
7969;SDS011;4030;52.362;9.206;2022-09-03T06:26:44;1.90;;;0.82;;
7969;SDS011;4030;52.362;9.206;2022-09-03T06:29:10;1.50;;;0.80;;
7969;SDS011;4030;52.362;9.206;2022-09-03T06:31:37;1.13;;;0.90;;
7969;SDS011;4030;52.362;9.206;2022-09-03T06:34:03;1.10;;;0.73;;
7969;SDS011;4030;52.362;9.206;2022-09-03T06:36:30;1.83;;;1.00;;
7969;SDS011;4030;52.362;9.206;2022-09-03T06:38:56;1.85;;;1.00;;
7969;SDS011;4030;52.362;9.206;2022-09-03T06:41:23;1.02;;;0.80;;
7969;SDS011;4030;52.362;9.206;2022-09-03T06:43:56;1.60;;;1.10;;
7969;SDS011;4030;52.362;9.206;2022-09-03T06:46:28;1.58;;;1.20;;
7969;SDS011;4030;52.362;9.206;2022-09-03T06:48:58;1.10;;;0.90;;
7969;SDS011;4030;52.362;9.206;2022-09-03T06:51:25;3.03;;;0.80;;
7969;SDS011;4030;52.362;9.206;2022-09-03T06:53:54;1.00;;;0.90;;
7969;SDS011;4030;52.362;9.206;2022-09-03T06:56:25;1.67;;;0.90;;
7969;SDS011;4030;52.362;9.206;2022-09-03T06:58:51;1.45;;;1.00;;
7969;SDS011;4030;52.362;9.206;2022-09-03T07:01:23;1.73;;;1.10;;
7969;SDS011;4030;52.362;9.206;2022-09-03T07:03:53;1.73;;;0.85;;
7969;SDS011;4030;52.362;9.206;2022-09-03T07:06:21;3.03;;;1.10;;
7969;SDS011;4030;52.362;9.206;2022-09-03T07:08:49;1.40;;;0.90;;
7969;SDS011;4030;52.362;9.206;2022-09-03T07:11:16;1.73;;;1.00;;
7969;SDS011;4030;52.362;9.206;2022-09-03T07:13:44;1.50;;;0.98;;
7969;SDS011;4030;52.362;9.206;2022-09-03T07:16:19;1.30;;;1.00;;
7969;SDS011;4030;52.362;9.206;2022-09-03T07:18:51;1.13;;;1.00;;
7969;SDS011;4030;52.362;9.206;2022-09-03T07:21:20;0.98;;;0.90;;
7969;SDS011;4030;52.362;9.206;2022-09-03T07:23:49;1.33;;;0.90;;
7969;SDS011;4030;52.362;9.206;2022-09-03T07:26:17;0.80;;;0.80;;
7969;SDS011;4030;52.362;9.206;2022-09-03T07:28:45;0.80;;;0.60;;
7969;SDS011;4030;52.362;9.206;2022-09-03T07:31:19;2.35;;;0.85;;
7969;SDS011;4030;52.362;9.206;2022-09-03T07:33:54;1.17;;;0.80;;
7969;SDS011;4030;52.362;9.206;2022-09-03T07:36:25;1.48;;;0.90;;
7969;SDS011;4030;52.362;9.206;2022-09-03T07:38:56;2.00;;;0.95;;
7969;SDS011;4030;52.362;9.206;2022-09-03T07:41:23;1.20;;;0.95;;
7969;SDS011;4030;52.362;9.206;2022-09-03T07:43:50;1.02;;;0.85;;
7969;SDS011;4030;52.362;9.206;2022-09-03T07:46:17;2.42;;;1.00;;
7969;SDS011;4030;52.362;9.206;2022-09-03T07:51:16;1.25;;;0.85;;
7969;SDS011;4030;52.362;9.206;2022-09-03T07:53:43;2.70;;;0.90;;
7969;SDS011;4030;52.362;9.206;2022-09-03T07:56:11;1.00;;;0.90;;
7969;SDS011;4030;52.362;9.206;2022-09-03T07:58:37;1.77;;;0.98;;
7969;SDS011;4030;52.362;9.206;2022-09-03T08:01:06;1.70;;;1.08;;
7969;SDS011;4030;52.362;9.206;2022-09-03T08:03:35;1.77;;;1.00;;
7969;SDS011;4030;52.362;9.206;2022-09-03T08:06:02;1.00;;;0.88;;
7969;SDS011;4030;52.362;9.206;2022-09-03T08:08:32;2.35;;;1.02;;
7969;SDS011;4030;52.362;9.206;2022-09-03T08:11:06;2.00;;;0.80;;
7969;SDS011;4030;52.362;9.206;2022-09-03T08:13:34;1.40;;;0.90;;
7969;SDS011;4030;52.362;9.206;2022-09-03T08:16:01;1.70;;;0.93;;
7969;SDS011;4030;52.362;9.206;2022-09-03T08:18:28;1.63;;;0.85;;
7969;SDS011;4030;52.362;9.206;2022-09-03T08:20:58;1.33;;;1.00;;
7969;SDS011;4030;52.362;9.206;2022-09-03T08:23:24;1.02;;;0.77;;
7969;SDS011;4030;52.362;9.206;2022-09-03T08:25:56;0.98;;;0.75;;
7969;SDS011;4030;52.362;9.206;2022-09-03T08:28:24;2.72;;;1.10;;
7969;SDS011;4030;52.362;9.206;2022-09-03T08:30:50;1.30;;;0.90;;
7969;SDS011;4030;52.362;9.206;2022-09-03T08:33:15;1.02;;;0.80;;
7969;SDS011;4030;52.362;9.206;2022-09-03T08:35:41;1.23;;;0.90;;
7969;SDS011;4030;52.362;9.206;2022-09-03T08:38:07;2.05;;;1.00;;
7969;SDS011;4030;52.362;9.206;2022-09-03T08:40:35;1.73;;;0.80;;
7969;SDS011;4030;52.362;9.206;2022-09-03T08:45:32;2.50;;;1.00;;
7969;SDS011;4030;52.362;9.206;2022-09-03T08:50:38;1.90;;;0.82;;
7969;SDS011;4030;52.362;9.206;2022-09-03T08:56:13;1.42;;;0.93;;
7969;SDS011;4030;52.362;9.206;2022-09-03T08:58:49;0.88;;;0.75;;
7969;SDS011;4030;52.362;9.206;2022-09-03T09:01:20;5.38;;;1.15;;
7969;SDS011;4030;52.362;9.206;2022-09-03T09:07:03;5.05;;;1.38;;
7969;SDS011;4030;52.362;9.206;2022-09-03T09:09:48;3.80;;;1.20;;
7969;SDS011;4030;52.362;9.206;2022-09-03T09:16:00;3.88;;;1.30;;
7969;SDS011;4030;52.362;9.206;2022-09-03T09:18:19;3.08;;;1.40;;
7969;SDS011;4030;52.362;9.206;2022-09-03T09:20:56;2.08;;;1.45;;
7969;SDS011;4030;52.362;9.206;2022-09-03T09:23:52;2.58;;;1.30;;
7969;SDS011;4030;52.362;9.206;2022-09-03T09:26:23;3.88;;;1.50;;
7969;SDS011;4030;52.362;9.206;2022-09-03T09:28:52;4.72;;;1.60;;
7969;SDS011;4030;52.362;9.206;2022-09-03T09:31:29;2.13;;;1.40;;
7969;SDS011;4030;52.362;9.206;2022-09-03T09:33:58;3.15;;;1.30;;
7969;SDS011;4030;52.362;9.206;2022-09-03T09:36:31;3.22;;;1.45;;
7969;SDS011;4030;52.362;9.206;2022-09-03T09:39:19;4.55;;;1.65;;
7969;SDS011;4030;52.362;9.206;2022-09-03T09:44:39;2.63;;;1.35;;
7969;SDS011;4030;52.362;9.206;2022-09-03T09:47:09;1.77;;;1.10;;
7969;SDS011;4030;52.362;9.206;2022-09-03T09:52:11;3.22;;;1.25;;
7969;SDS011;4030;52.362;9.206;2022-09-03T09:54:40;3.92;;;1.40;;
7969;SDS011;4030;52.362;9.206;2022-09-03T09:57:15;1.40;;;1.00;;
7969;SDS011;4030;52.362;9.206;2022-09-03T09:59:46;3.58;;;1.17;;
7969;SDS011;4030;52.362;9.206;2022-09-03T10:02:21;2.90;;;1.10;;
7969;SDS011;4030;52.362;9.206;2022-09-03T10:04:54;2.13;;;1.10;;
7969;SDS011;4030;52.362;9.206;2022-09-03T10:07:38;2.70;;;1.02;;
7969;SDS011;4030;52.362;9.206;2022-09-03T10:12:50;7.10;;;1.77;;
7969;SDS011;4030;52.362;9.206;2022-09-03T10:21:07;3.65;;;1.20;;
7969;SDS011;4030;52.362;9.206;2022-09-03T10:24:39;2.50;;;1.00;;
7969;SDS011;4030;52.362;9.206;2022-09-03T10:26:53;2.22;;;1.10;;
7969;SDS011;4030;52.362;9.206;2022-09-03T10:29:20;5.70;;;1.17;;
7969;SDS011;4030;52.362;9.206;2022-09-03T10:32:06;2.35;;;1.00;;
7969;SDS011;4030;52.362;9.206;2022-09-03T10:34:53;1.15;;;0.80;;
7969;SDS011;4030;52.362;9.206;2022-09-03T10:37:50;4.32;;;1.05;;
7969;SDS011;4030;52.362;9.206;2022-09-03T10:40:39;3.45;;;0.90;;
7969;SDS011;4030;52.362;9.206;2022-09-03T10:46:26;2.50;;;1.00;;
7969;SDS011;4030;52.362;9.206;2022-09-03T10:51:34;2.35;;;1.13;;
7969;SDS011;4030;52.362;9.206;2022-09-03T10:54:22;2.42;;;0.80;;
7969;SDS011;4030;52.362;9.206;2022-09-03T11:00:09;1.98;;;0.90;;
7969;SDS011;4030;52.362;9.206;2022-09-03T11:05:48;1.73;;;0.80;;
7969;SDS011;4030;52.362;9.206;2022-09-03T11:08:35;2.95;;;1.00;;
7969;SDS011;4030;52.362;9.206;2022-09-03T11:11:15;2.10;;;0.98;;
7969;SDS011;4030;52.362;9.206;2022-09-03T11:17:05;2.08;;;0.80;;
7969;SDS011;4030;52.362;9.206;2022-09-03T11:19:48;5.50;;;1.00;;
7969;SDS011;4030;52.362;9.206;2022-09-03T11:22:30;5.65;;;1.00;;
7969;SDS011;4030;52.362;9.206;2022-09-03T11:24:57;3.05;;;0.90;;
7969;SDS011;4030;52.362;9.206;2022-09-03T11:27:34;2.53;;;0.82;;
7969;SDS011;4030;52.362;9.206;2022-09-03T11:30:24;1.95;;;0.90;;
7969;SDS011;4030;52.362;9.206;2022-09-03T11:33:13;1.48;;;0.75;;
7969;SDS011;4030;52.362;9.206;2022-09-03T11:35:45;4.53;;;1.05;;
7969;SDS011;4030;52.362;9.206;2022-09-03T11:38:21;1.50;;;0.98;;
7969;SDS011;4030;52.362;9.206;2022-09-03T11:43:49;2.08;;;0.88;;
7969;SDS011;4030;52.362;9.206;2022-09-03T11:56:47;2.35;;;0.80;;
7969;SDS011;4030;52.362;9.206;2022-09-03T11:59:23;2.40;;;0.80;;
7969;SDS011;4030;52.362;9.206;2022-09-03T12:04:39;2.80;;;0.82;;
7969;SDS011;4030;52.362;9.206;2022-09-03T12:07:20;2.15;;;0.90;;
7969;SDS011;4030;52.362;9.206;2022-09-03T12:20:41;1.33;;;0.80;;
7969;SDS011;4030;52.362;9.206;2022-09-03T12:23:10;1.52;;;0.90;;
7969;SDS011;4030;52.362;9.206;2022-09-03T12:25:51;2.35;;;0.93;;
7969;SDS011;4030;52.362;9.206;2022-09-03T12:28:19;2.38;;;0.82;;
7969;SDS011;4030;52.362;9.206;2022-09-03T12:30:47;1.20;;;1.00;;
7969;SDS011;4030;52.362;9.206;2022-09-03T12:33:17;5.32;;;0.90;;
7969;SDS011;4030;52.362;9.206;2022-09-03T12:35:55;1.65;;;0.90;;
7969;SDS011;4030;52.362;9.206;2022-09-03T12:38:26;2.78;;;0.80;;
7969;SDS011;4030;52.362;9.206;2022-09-03T12:40:54;2.70;;;0.80;;
7969;SDS011;4030;52.362;9.206;2022-09-03T12:43:25;1.98;;;0.60;;
7969;SDS011;4030;52.362;9.206;2022-09-03T12:45:53;1.50;;;0.90;;
7969;SDS011;4030;52.362;9.206;2022-09-03T12:48:19;1.45;;;0.60;;
7969;SDS011;4030;52.362;9.206;2022-09-03T12:50:47;0.95;;;0.70;;
7969;SDS011;4030;52.362;9.206;2022-09-03T12:53:20;2.10;;;0.85;;
7969;SDS011;4030;52.362;9.206;2022-09-03T12:55:50;3.00;;;0.80;;
7969;SDS011;4030;52.362;9.206;2022-09-03T12:58:22;2.97;;;0.80;;
7969;SDS011;4030;52.362;9.206;2022-09-03T13:01:02;1.30;;;0.73;;
7969;SDS011;4030;52.362;9.206;2022-09-03T13:03:43;2.63;;;0.95;;
7969;SDS011;4030;52.362;9.206;2022-09-03T13:06:22;1.77;;;0.82;;
7969;SDS011;4030;52.362;9.206;2022-09-03T13:09:02;2.13;;;0.73;;
7969;SDS011;4030;52.362;9.206;2022-09-03T13:11:32;1.25;;;0.77;;
7969;SDS011;4030;52.362;9.206;2022-09-03T13:14:06;1.88;;;0.90;;
7969;SDS011;4030;52.362;9.206;2022-09-03T13:25:49;2.17;;;0.90;;
7969;SDS011;4030;52.362;9.206;2022-09-03T13:28:32;1.70;;;0.90;;
7969;SDS011;4030;52.362;9.206;2022-09-03T13:31:34;2.38;;;0.80;;
7969;SDS011;4030;52.362;9.206;2022-09-03T13:34:16;1.60;;;0.80;;
7969;SDS011;4030;52.362;9.206;2022-09-03T13:39:34;1.63;;;0.63;;
7969;SDS011;4030;52.362;9.206;2022-09-03T13:42:12;1.67;;;0.70;;
7969;SDS011;4030;52.362;9.206;2022-09-03T13:45:12;1.33;;;0.70;;
7969;SDS011;4030;52.362;9.206;2022-09-03T13:48:07;1.77;;;0.90;;
7969;SDS011;4030;52.362;9.206;2022-09-03T13:51:28;1.88;;;0.80;;
7969;SDS011;4030;52.362;9.206;2022-09-03T13:54:06;2.05;;;0.60;;
7969;SDS011;4030;52.362;9.206;2022-09-03T14:15:47;1.65;;;0.90;;
7969;SDS011;4030;52.362;9.206;2022-09-03T14:21:01;1.45;;;0.80;;
7969;SDS011;4030;52.362;9.206;2022-09-03T14:26:17;1.25;;;0.77;;
7969;SDS011;4030;52.362;9.206;2022-09-03T14:37:52;1.25;;;0.82;;
7969;SDS011;4030;52.362;9.206;2022-09-03T14:40:55;1.00;;;0.80;;
7969;SDS011;4030;52.362;9.206;2022-09-03T14:43:46;3.08;;;0.73;;
7969;SDS011;4030;52.362;9.206;2022-09-03T14:55:41;2.38;;;0.73;;
7969;SDS011;4030;52.362;9.206;2022-09-03T15:07:35;1.23;;;0.80;;
7969;SDS011;4030;52.362;9.206;2022-09-03T15:10:42;2.28;;;0.80;;
7969;SDS011;4030;52.362;9.206;2022-09-03T15:13:30;2.05;;;0.90;;
7969;SDS011;4030;52.362;9.206;2022-09-03T15:18:44;1.48;;;0.90;;
7969;SDS011;4030;52.362;9.206;2022-09-03T15:30:09;0.90;;;0.70;;
7969;SDS011;4030;52.362;9.206;2022-09-03T15:33:02;1.55;;;0.73;;
7969;SDS011;4030;52.362;9.206;2022-09-03T15:41:33;2.50;;;0.95;;
7969;SDS011;4030;52.362;9.206;2022-09-03T15:44:40;1.58;;;0.73;;
7969;SDS011;4030;52.362;9.206;2022-09-03T15:47:13;1.65;;;0.80;;
7969;SDS011;4030;52.362;9.206;2022-09-03T15:50:15;0.70;;;0.70;;
7969;SDS011;4030;52.362;9.206;2022-09-03T15:53:11;2.45;;;0.90;;
7969;SDS011;4030;52.362;9.206;2022-09-03T15:56:18;3.22;;;1.00;;
7969;SDS011;4030;52.362;9.206;2022-09-03T15:59:05;1.50;;;0.90;;
7969;SDS011;4030;52.362;9.206;2022-09-03T16:01:58;3.28;;;1.20;;
7969;SDS011;4030;52.362;9.206;2022-09-03T16:07:25;2.88;;;1.00;;
7969;SDS011;4030;52.362;9.206;2022-09-03T16:10:07;1.45;;;0.85;;
7969;SDS011;4030;52.362;9.206;2022-09-03T16:15:31;2.13;;;1.13;;
7969;SDS011;4030;52.362;9.206;2022-09-03T16:20:58;3.00;;;0.90;;
7969;SDS011;4030;52.362;9.206;2022-09-03T16:23:50;2.20;;;0.90;;
7969;SDS011;4030;52.362;9.206;2022-09-03T16:26:30;4.88;;;0.80;;
7969;SDS011;4030;52.362;9.206;2022-09-03T16:29:10;1.88;;;1.00;;
7969;SDS011;4030;52.362;9.206;2022-09-03T16:35:09;2.88;;;0.90;;
7969;SDS011;4030;52.362;9.206;2022-09-03T16:38:28;0.85;;;0.68;;
7969;SDS011;4030;52.362;9.206;2022-09-03T16:44:33;0.73;;;0.70;;
7969;SDS011;4030;52.362;9.206;2022-09-03T16:55:51;1.40;;;0.70;;
7969;SDS011;4030;52.362;9.206;2022-09-03T16:58:44;1.52;;;0.93;;
7969;SDS011;4030;52.362;9.206;2022-09-03T17:01:28;0.98;;;0.80;;
7969;SDS011;4030;52.362;9.206;2022-09-03T17:04:19;1.33;;;0.90;;
7969;SDS011;4030;52.362;9.206;2022-09-03T17:07:16;1.20;;;0.80;;
7969;SDS011;4030;52.362;9.206;2022-09-03T17:13:25;1.33;;;1.00;;
7969;SDS011;4030;52.362;9.206;2022-09-03T17:25:07;1.48;;;0.90;;
7969;SDS011;4030;52.362;9.206;2022-09-03T17:30:52;1.20;;;0.90;;
7969;SDS011;4030;52.362;9.206;2022-09-03T17:33:45;2.50;;;0.90;;
7969;SDS011;4030;52.362;9.206;2022-09-03T17:36:30;1.65;;;1.13;;
7969;SDS011;4030;52.362;9.206;2022-09-03T17:50:52;1.73;;;1.00;;
7969;SDS011;4030;52.362;9.206;2022-09-03T17:53:36;1.90;;;1.00;;
7969;SDS011;4030;52.362;9.206;2022-09-03T17:56:52;2.08;;;0.82;;
7969;SDS011;4030;52.362;9.206;2022-09-03T17:59:20;1.52;;;1.00;;
7969;SDS011;4030;52.362;9.206;2022-09-03T18:03:12;2.22;;;1.00;;
7969;SDS011;4030;52.362;9.206;2022-09-03T18:05:28;1.35;;;0.90;;
7969;SDS011;4030;52.362;9.206;2022-09-03T18:13:45;1.23;;;1.00;;
7969;SDS011;4030;52.362;9.206;2022-09-03T18:16:32;1.35;;;1.00;;
7969;SDS011;4030;52.362;9.206;2022-09-03T18:19:49;1.30;;;0.98;;
7969;SDS011;4030;52.362;9.206;2022-09-03T18:22:25;1.38;;;1.10;;
7969;SDS011;4030;52.362;9.206;2022-09-03T18:25:22;1.25;;;1.05;;
7969;SDS011;4030;52.362;9.206;2022-09-03T18:28:09;2.33;;;1.10;;
7969;SDS011;4030;52.362;9.206;2022-09-03T18:30:58;2.05;;;1.00;;
7969;SDS011;4030;52.362;9.206;2022-09-03T18:33:42;2.80;;;1.00;;
7969;SDS011;4030;52.362;9.206;2022-09-03T18:36:26;2.70;;;1.25;;
7969;SDS011;4030;52.362;9.206;2022-09-03T18:45:55;1.65;;;1.20;;
7969;SDS011;4030;52.362;9.206;2022-09-03T18:52:09;2.92;;;0.90;;
7969;SDS011;4030;52.362;9.206;2022-09-03T19:10:27;3.17;;;0.95;;
7969;SDS011;4030;52.362;9.206;2022-09-03T19:13:31;1.45;;;1.05;;
7969;SDS011;4030;52.362;9.206;2022-09-03T19:22:34;1.27;;;0.95;;
7969;SDS011;4030;52.362;9.206;2022-09-03T19:25:22;1.23;;;0.95;;
7969;SDS011;4030;52.362;9.206;2022-09-03T19:28:12;1.58;;;1.13;;
7969;SDS011;4030;52.362;9.206;2022-09-03T19:41:04;1.20;;;1.00;;
7969;SDS011;4030;52.362;9.206;2022-09-03T19:47:07;1.33;;;1.05;;
7969;SDS011;4030;52.362;9.206;2022-09-03T19:53:14;1.75;;;1.10;;
7969;SDS011;4030;52.362;9.206;2022-09-03T19:56:03;2.78;;;1.25;;
7969;SDS011;4030;52.362;9.206;2022-09-03T19:58:54;2.42;;;1.10;;
7969;SDS011;4030;52.362;9.206;2022-09-03T20:01:46;1.35;;;1.10;;
7969;SDS011;4030;52.362;9.206;2022-09-03T20:04:37;2.55;;;1.10;;
7969;SDS011;4030;52.362;9.206;2022-09-03T20:07:27;1.20;;;1.00;;
7969;SDS011;4030;52.362;9.206;2022-09-03T20:10:12;1.42;;;1.10;;
7969;SDS011;4030;52.362;9.206;2022-09-03T20:12:52;1.15;;;0.90;;
7969;SDS011;4030;52.362;9.206;2022-09-03T20:15:26;1.25;;;1.02;;
7969;SDS011;4030;52.362;9.206;2022-09-03T20:20:55;1.13;;;1.00;;
7969;SDS011;4030;52.362;9.206;2022-09-03T20:24:00;1.13;;;1.00;;
7969;SDS011;4030;52.362;9.206;2022-09-03T20:41:19;1.63;;;1.05;;
7969;SDS011;4030;52.362;9.206;2022-09-03T20:56:21;1.40;;;1.10;;
7969;SDS011;4030;52.362;9.206;2022-09-03T20:59:07;1.80;;;1.33;;
7969;SDS011;4030;52.362;9.206;2022-09-03T21:11:06;1.20;;;1.00;;
7969;SDS011;4030;52.362;9.206;2022-09-03T21:13:44;1.85;;;1.10;;
7969;SDS011;4030;52.362;9.206;2022-09-03T21:22:17;1.30;;;1.10;;
7969;SDS011;4030;52.362;9.206;2022-09-03T21:24:50;1.52;;;1.10;;
7969;SDS011;4030;52.362;9.206;2022-09-03T21:27:22;4.15;;;1.60;;
7969;SDS011;4030;52.362;9.206;2022-09-03T21:30:07;3.03;;;1.52;;
7969;SDS011;4030;52.362;9.206;2022-09-03T21:32:38;2.20;;;1.58;;
7969;SDS011;4030;52.362;9.206;2022-09-03T21:35:26;3.50;;;1.42;;
7969;SDS011;4030;52.362;9.206;2022-09-03T21:38:03;1.52;;;1.15;;
7969;SDS011;4030;52.362;9.206;2022-09-03T21:40:40;1.75;;;1.40;;
7969;SDS011;4030;52.362;9.206;2022-09-03T21:43:18;2.13;;;1.38;;
7969;SDS011;4030;52.362;9.206;2022-09-03T21:45:54;2.03;;;1.55;;
7969;SDS011;4030;52.362;9.206;2022-09-03T21:48:37;2.03;;;1.30;;
7969;SDS011;4030;52.362;9.206;2022-09-03T21:54:30;2.78;;;1.50;;
7969;SDS011;4030;52.362;9.206;2022-09-03T22:02:35;1.98;;;1.40;;
7969;SDS011;4030;52.362;9.206;2022-09-03T22:05:02;3.60;;;1.25;;
7969;SDS011;4030;52.362;9.206;2022-09-03T22:07:42;1.95;;;1.60;;
7969;SDS011;4030;52.362;9.206;2022-09-03T22:13:50;1.58;;;1.35;;
7969;SDS011;4030;52.362;9.206;2022-09-03T22:16:26;1.60;;;1.30;;
7969;SDS011;4030;52.362;9.206;2022-09-03T22:19:02;2.33;;;1.60;;